LESO/EAS METAR and TAF weather

Enter ICAO airport designator
Station Type Date Time Source
LESO METAR 2021/07/30 23:00 UTC NOAA

LESO 302300Z AUTO 36007KT 290V050 9999 BKN018 OVC023 20/16 Q1017


Station Type Date Time Source
LESO Decoded METAR 2021/07/30 23:00 UTC NOAA

San Sebastian / Fuenterrabia, Spain (LESO) 43-21N 001-48W 8M
Jul 30, 2021 - 07:00 PM EDT / 2021.07.30 2300 UTC
Wind: from the N (360 degrees) at 8 MPH (7 KT) (direction variable):0
Visibility: greater than 7 mile(s):0
Sky conditions: overcast
Temperature: 68 F (20 C)
Dew Point: 60 F (16 C)
Relative Humidity: 77%
Pressure (altimeter): 30.03 in. Hg (1017 hPa)
ob: LESO 302300Z AUTO 36007KT 290V050 9999 BKN018 OVC023 20/16 Q1017
cycle: 23

Station Type Date Time Source
LESO TAF 2021/07/30 18:27 UTC NOAA

TAF LESO 301700Z 3018/3118 32008KT 9999 SCT020 BKN035 TX22/3113Z TN18/3106Z PROB30
TEMPO 3018/3020 3000 DZRA BKN014 PROB30
TEMPO 3018/3107 3000 RA BKN010 PROB40
TEMPO 3114/3118 3000 RA SHRA BKN010 SCT030TCU

Example: see airport list